Main page
Satellite images 15-day forecastsClimateMarine weather Cyclones Lightning AirportsFAQ Newsletter About
Weather : Europe Africa North America South America Asia Australia-Oceania Others
Languages Contact

Alpine, Texas, United States

Alpine-Casparis Municipal Airport

latitude: 30-23-03N, longitude: 103-41-00W, elevation: 1376 m


METAR: KE38 260055Z AUTO 21008KT 10SM CLR 20/08 A3024 RMK AO2 T02000077
TAF: missing

Time: 20:02 (01:02 UTC)

Current weather observation

The report was made 7 minutes ago, at 00:55 UTC
Wind 8 kt from the South/Southwest
Temperature 20°C
Humidity 46%
Pressure 1024 hPa
Visibility: 16.1 km
Clear sky

Change units
The information on this site is subject to a disclaimer
Weather : Europe Africa North America South America Asia Australia-Oceania Others
Satellite images 15-day forecastsClimateMarine weather Cyclones Lightning AirportsFAQ Languages Contact Newsletter About